Time;durP1;ratioP1;P1;durP2;ratioP2;P2;SDS_P1;SDS_P2;PMS_P1;PMS_P2;Temp;Humidity;BMP_temperature;BMP_pressure;BME280_temperature;BME280_humidity;BME280_pressure;Samples;Min_cycle;Max_cycle;Signal;HPM_P1;HPM_P2
2022/03/09 00:00:07;;;;;;;8.73;6.97;;;-6.60;99.90;;;;;;5125267;27;20674;-63
2022/03/09 00:02:46;;;;;;;6.70;6.20;;;-6.60;99.90;;;;;;5126185;27;21104;-60
2022/03/09 00:05:26;;;;;;;7.47;6.78;;;-6.70;99.90;;;;;;5103718;27;20662;-60
2022/03/09 00:08:06;;;;;;;7.15;6.55;;;-6.80;99.90;;;;;;5104648;27;20673;-60
2022/03/09 00:10:47;;;;;;;7.57;6.97;;;-6.80;99.90;;;;;;5084424;28;20663;-63
2022/03/09 00:13:27;;;;;;;7.20;6.60;;;-6.90;99.90;;;;;;5085182;27;20572;-61
2022/03/09 00:16:07;;;;;;;8.88;8.00;;;-6.90;99.90;;;;;;5105986;27;20868;-62
2022/03/09 00:18:46;;;;;;;6.95;6.25;;;-6.90;99.90;;;;;;5084719;28;20656;-62
2022/03/09 00:21:26;;;;;;;8.02;7.43;;;-6.80;99.90;;;;;;5105237;27;20549;-59
2022/03/09 00:24:07;;;;;;;8.35;7.65;;;-6.80;99.90;;;;;;5105302;27;20662;-61
2022/03/09 00:26:46;;;;;;;7.85;7.15;;;-6.80;99.90;;;;;;5105618;27;20693;-63
2022/03/09 00:29:26;;;;;;;8.82;8.05;;;-6.80;99.90;;;;;;5146546;27;20556;-61
2022/03/09 00:32:06;;;;;;;7.68;6.97;;;-6.80;99.90;;;;;;5105206;27;20549;-60
2022/03/09 00:34:45;;;;;;;8.35;7.65;;;-6.90;99.90;;;;;;5146168;27;21059;-59
2022/03/09 00:37:25;;;;;;;9.38;8.57;;;-6.80;99.90;;;;;;5060505;28;20586;-60
2022/03/09 00:40:06;;;;;;;10.20;8.30;;;-6.80;99.90;;;;;;5105587;27;20662;-59
2022/03/09 00:42:46;;;;;;;8.38;7.68;;;-6.80;99.90;;;;;;5105225;27;21090;-60
2022/03/09 00:45:26;;;;;;;7.93;7.18;;;-6.60;99.90;;;;;;5105392;27;20649;-60
2022/03/09 00:48:06;;;;;;;9.48;7.72;;;-6.60;99.90;;;;;;5084433;28;20904;-60
2022/03/09 00:50:46;;;;;;;8.18;7.38;;;-6.50;99.90;;;;;;5084231;27;20547;-59
2022/03/09 00:53:26;;;;;;;8.27;7.57;;;-6.50;99.90;;;;;;5104141;27;20677;-62
2022/03/09 00:56:06;;;;;;;8.20;7.40;;;-6.70;99.90;;;;;;5146334;27;20664;-63
2022/03/09 00:58:46;;;;;;;8.18;7.57;;;-6.80;99.90;;;;;;5084110;28;21222;-61
2022/03/09 01:01:25;;;;;;;10.27;7.10;;;-6.90;99.90;;;;;;5084634;27;21079;-61
2022/03/09 01:04:05;;;;;;;7.57;6.88;;;-6.90;99.90;;;;;;5082977;28;20563;-59
2022/03/09 01:06:45;;;;;;;8.35;7.63;;;-7.00;99.90;;;;;;5105253;27;20549;-59
2022/03/09 01:09:25;;;;;;;8.45;7.72;;;-7.10;99.90;;;;;;5104517;27;20682;-60
2022/03/09 01:12:05;;;;;;;7.65;6.90;;;-7.10;99.90;;;;;;5084279;27;20620;-60
2022/03/09 01:14:44;;;;;;;8.52;7.82;;;-6.90;99.90;;;;;;5082173;27;21154;-60
2022/03/09 01:17:26;;;;;;;7.50;6.85;;;-6.70;99.90;;;;;;5104104;27;20670;-60
2022/03/09 01:20:07;;;;;;;7.72;7.13;;;-6.80;99.90;;;;;;5084812;27;20613;-60
2022/03/09 01:22:47;;;;;;;7.60;7.05;;;-6.90;99.90;;;;;;5125267;27;20555;-62
2022/03/09 01:25:27;;;;;;;7.53;6.88;;;-6.90;99.90;;;;;;5125154;27;20885;-60
2022/03/09 01:28:07;;;;;;;8.35;7.40;;;-6.90;99.90;;;;;;5104307;27;20546;-62
2022/03/09 01:30:46;;;;;;;7.20;6.65;;;-7.00;99.90;;;;;;5146079;27;21132;-63
2022/03/09 01:33:26;;;;;;;7.40;6.80;;;-7.10;99.90;;;;;;5161241;27;20581;-59
2022/03/09 01:36:07;;;;;;;8.88;7.38;;;-7.20;99.90;;;;;;5146716;27;20546;-60
2022/03/09 01:38:46;;;;;;;8.13;7.53;;;-7.20;99.90;;;;;;5104822;27;20952;-61
2022/03/09 01:41:26;;;;;;;7.45;6.88;;;-7.20;99.90;;;;;;5084533;28;21017;-59
2022/03/09 01:44:11;;;;;;;7.45;6.75;;;-7.10;99.90;;;;;;5146198;27;20649;-59
2022/03/09 01:46:53;;;;;;;7.63;7.07;;;-7.20;99.90;;;;;;5126509;27;20663;-60
2022/03/09 01:49:32;;;;;;;8.05;7.45;;;-7.30;99.90;;;;;;5104750;27;20538;-60
2022/03/09 01:52:13;;;;;;;7.25;6.55;;;-7.30;99.90;;;;;;5084218;27;20703;-62
2022/03/09 01:54:54;;;;;;;8.50;7.30;;;-7.40;99.90;;;;;;5124919;27;20948;-60
2022/03/09 01:57:33;;;;;;;7.25;6.65;;;-7.50;99.90;;;;;;5104386;27;21074;-59
2022/03/09 02:00:14;;;;;;;7.00;6.50;;;-7.50;99.90;;;;;;5145825;27;20645;-62
2022/03/09 02:02:52;;;;;;;7.88;6.43;;;-7.60;99.90;;;;;;5146464;27;20546;-59
2022/03/09 02:05:34;;;;;;;8.32;7.45;;;-7.50;99.90;;;;;;5144454;27;20535;-61
2022/03/09 02:11:11;;;;;;;8.43;7.63;;;-7.60;99.90;;;;;;5105692;27;20649;-60
2022/03/09 02:13:51;;;;;;;6.68;6.07;;;-7.60;99.90;;;;;;5084576;27;20564;-59
2022/03/09 02:16:31;;;;;;;7.35;6.75;;;-7.50;99.90;;;;;;5105780;27;20970;-60
2022/03/09 02:19:10;;;;;;;7.40;6.80;;;-7.50;99.90;;;;;;5084234;28;20547;-62
2022/03/09 02:21:55;;;;;;;6.95;6.45;;;-7.50;99.90;;;;;;5084810;28;20667;-63
2022/03/09 02:24:35;;;;;;;6.95;6.40;;;-7.50;99.90;;;;;;5084365;28;20656;-60
2022/03/09 02:27:15;;;;;;;7.93;7.32;;;-7.50;99.90;;;;;;5125560;27;21077;-61
2022/03/09 02:29:56;;;;;;;7.35;6.75;;;-7.60;99.90;;;;;;5084541;27;20908;-64
2022/03/09 02:32:40;;;;;;;9.10;8.32;;;-7.60;99.90;;;;;;5100541;27;20566;-62
2022/03/09 02:35:20;;;;;;;7.60;6.88;;;-7.60;99.90;;;;;;5104766;27;20564;-60
2022/03/09 02:38:01;;;;;;;7.90;7.20;;;-7.70;99.90;;;;;;5084186;28;20656;-61
2022/03/09 02:40:40;;;;;;;8.15;7.25;;;-7.70;99.90;;;;;;5084138;28;20659;-60
2022/03/09 02:43:20;;;;;;;7.13;6.63;;;-7.70;99.90;;;;;;5104962;27;20678;-60
2022/03/09 02:46:00;;;;;;;7.95;7.35;;;-7.80;99.90;;;;;;5125335;27;20570;-61
2022/03/09 02:48:40;;;;;;;8.65;7.75;;;-7.80;99.90;;;;;;5145450;27;20535;-59
2022/03/09 02:51:20;;;;;;;9.70;7.70;;;-7.80;99.90;;;;;;5084264;27;21104;-61
2022/03/09 02:54:00;;;;;;;7.13;6.20;;;-7.80;99.90;;;;;;5125246;27;20699;-62
2022/03/09 02:56:39;;;;;;;8.05;7.30;;;-7.70;99.90;;;;;;5084868;27;20547;-61
2022/03/09 02:59:19;;;;;;;6.90;6.30;;;-7.70;99.90;;;;;;5084120;27;20540;-62
2022/03/09 03:01:59;;;;;;;7.03;6.38;;;-7.60;99.90;;;;;;5104875;27;21170;-59
2022/03/09 03:04:39;;;;;;;6.88;6.25;;;-7.60;99.90;;;;;;5144354;27;20676;-59
2022/03/09 03:07:19;;;;;;;7.65;7.00;;;-7.60;99.90;;;;;;5104357;27;20682;-60
2022/03/09 03:09:58;;;;;;;7.43;6.65;;;-7.60;99.90;;;;;;5104862;27;20662;-61
2022/03/09 03:12:38;;;;;;;7.80;7.15;;;-7.70;99.90;;;;;;5084445;27;20577;-61
2022/03/09 03:15:18;;;;;;;6.70;5.75;;;-7.70;99.90;;;;;;5084581;28;20584;-62
2022/03/09 03:17:59;;;;;;;6.25;5.75;;;-7.90;99.90;;;;;;5084232;28;20652;-59
2022/03/09 03:20:38;;;;;;;6.88;5.68;;;-7.90;99.90;;;;;;5125188;27;20656;-62
2022/03/09 03:23:17;;;;;;;6.72;6.22;;;-7.90;99.90;;;;;;5123835;27;20556;-59
2022/03/09 03:25:58;;;;;;;7.03;6.32;;;-8.00;99.90;;;;;;5104624;27;20560;-60
2022/03/09 03:28:37;;;;;;;6.90;6.30;;;-8.00;99.90;;;;;;5084053;28;21036;-60
2022/03/09 03:31:17;;;;;;;6.78;6.18;;;-8.00;99.90;;;;;;5083811;27;21099;-63
2022/03/09 03:33:57;;;;;;;7.25;6.55;;;-7.90;99.90;;;;;;5083772;28;20555;-64
2022/03/09 03:36:37;;;;;;;6.68;6.10;;;-8.00;99.90;;;;;;5125753;27;20667;-61
2022/03/09 03:39:16;;;;;;;6.55;5.97;;;-8.00;99.90;;;;;;5143377;27;20543;-60
2022/03/09 03:41:56;;;;;;;6.07;5.57;;;-8.10;99.90;;;;;;5084328;27;21208;-62
2022/03/09 03:44:36;;;;;;;7.20;6.60;;;-8.10;99.90;;;;;;5084522;27;20671;-59
2022/03/09 03:47:16;;;;;;;6.45;5.95;;;-8.00;99.90;;;;;;5124989;27;20552;-62
2022/03/09 03:49:56;;;;;;;7.97;6.72;;;-8.00;99.90;;;;;;5084433;28;20671;-61
2022/03/09 03:52:36;;;;;;;6.10;5.60;;;-8.00;99.90;;;;;;5153711;27;20537;-60
2022/03/09 03:55:16;;;;;;;6.63;6.03;;;-8.00;99.90;;;;;;5082714;28;21192;-60
2022/03/09 03:57:55;;;;;;;7.40;6.80;;;-8.00;99.90;;;;;;5145725;27;20681;-59
2022/03/09 04:00:35;;;;;;;6.78;5.93;;;-8.00;99.90;;;;;;5145268;27;20649;-61
2022/03/09 04:03:15;;;;;;;6.95;6.32;;;-8.10;99.90;;;;;;5125287;27;20544;-63
2022/03/09 04:05:55;;;;;;;7.13;6.45;;;-8.10;99.90;;;;;;5082531;28;20683;-60
2022/03/09 04:08:35;;;;;;;6.72;6.15;;;-8.10;99.90;;;;;;5083852;28;21184;-61
2022/03/09 04:11:14;;;;;;;7.15;6.45;;;-8.10;99.90;;;;;;5084320;27;21133;-59
2022/03/09 04:13:54;;;;;;;6.72;6.22;;;-8.10;99.90;;;;;;5104511;27;20575;-60
2022/03/09 04:16:34;;;;;;;7.28;6.43;;;-8.10;99.90;;;;;;5125594;27;20568;-61
2022/03/09 04:19:14;;;;;;;6.93;6.32;;;-8.10;99.90;;;;;;5104286;27;20865;-61
2022/03/09 04:21:54;;;;;;;6.53;5.93;;;-8.20;99.90;;;;;;5147737;27;20534;-60
2022/03/09 04:24:33;;;;;;;7.07;6.35;;;-8.20;99.90;;;;;;5104715;27;20549;-59
2022/03/09 04:27:14;;;;;;;7.07;6.45;;;-8.20;99.90;;;;;;5124870;27;20597;-60
2022/03/09 04:29:53;;;;;;;6.97;6.45;;;-8.20;99.90;;;;;;5104901;27;20857;-60
2022/03/09 04:32:34;;;;;;;6.30;5.80;;;-8.20;99.90;;;;;;5083279;28;20691;-61
2022/03/09 04:35:13;;;;;;;7.18;6.57;;;-8.20;99.90;;;;;;5084403;28;21225;-60
2022/03/09 04:37:53;;;;;;;7.65;6.80;;;-8.20;99.90;;;;;;5124446;27;20675;-61
2022/03/09 04:40:32;;;;;;;7.07;6.50;;;-8.20;99.90;;;;;;5084291;27;20555;-59
2022/03/09 04:43:12;;;;;;;6.72;6.13;;;-8.10;99.90;;;;;;5104517;27;20562;-60
2022/03/09 04:45:52;;;;;;;7.43;6.75;;;-8.20;99.90;;;;;;5125319;27;20562;-61
2022/03/09 04:48:32;;;;;;;7.50;6.80;;;-8.20;99.90;;;;;;5145657;27;21202;-61
2022/03/09 04:51:12;;;;;;;7.32;6.75;;;-8.30;99.90;;;;;;5083941;28;20680;-61
2022/03/09 04:53:52;;;;;;;7.03;6.28;;;-8.30;99.90;;;;;;5164256;27;20557;-63
2022/03/09 04:56:31;;;;;;;8.80;6.97;;;-8.40;99.90;;;;;;5084374;28;20859;-60
2022/03/09 04:59:11;;;;;;;10.77;7.07;;;-8.40;99.90;;;;;;5145133;27;20681;-59
2022/03/09 05:01:51;;;;;;;7.55;6.90;;;-8.30;99.90;;;;;;5147397;27;21173;-60
2022/03/09 05:04:31;;;;;;;10.70;6.95;;;-8.30;99.90;;;;;;5082794;27;20543;-60
2022/03/09 05:07:11;;;;;;;6.88;6.10;;;-8.30;99.90;;;;;;5104872;27;20549;-61
2022/03/09 05:09:50;;;;;;;7.88;6.47;;;-8.30;99.90;;;;;;5084113;28;20547;-60
2022/03/09 05:12:31;;;;;;;6.88;6.25;;;-8.30;99.90;;;;;;5125498;27;20548;-60
2022/03/09 05:15:11;;;;;;;7.18;6.57;;;-8.30;99.90;;;;;;5104457;27;20541;-59
2022/03/09 05:17:50;;;;;;;7.50;6.75;;;-8.30;99.90;;;;;;5104602;27;21155;-60
2022/03/09 05:20:30;;;;;;;8.82;6.18;;;-8.30;99.90;;;;;;5125106;27;20544;-60
2022/03/09 05:23:10;;;;;;;8.15;5.90;;;-8.40;99.90;;;;;;5125821;27;20552;-60
2022/03/09 05:25:50;;;;;;;6.40;5.90;;;-8.40;99.90;;;;;;5104955;27;20677;-62
2022/03/09 05:28:29;;;;;;;7.53;6.28;;;-8.40;99.90;;;;;;5084648;28;21197;-60
2022/03/09 05:31:09;;;;;;;6.43;5.93;;;-8.50;99.90;;;;;;5084079;27;21083;-58
2022/03/09 05:33:49;;;;;;;7.50;6.85;;;-8.50;99.90;;;;;;5084579;27;20559;-59
2022/03/09 05:36:29;;;;;;;7.13;6.43;;;-8.50;99.90;;;;;;5084563;27;20550;-62
2022/03/09 05:39:09;;;;;;;7.53;6.65;;;-8.50;99.90;;;;;;5145819;27;21295;-61
2022/03/09 05:41:48;;;;;;;7.15;6.47;;;-8.40;99.90;;;;;;5082181;27;20605;-60
2022/03/09 05:44:28;;;;;;;7.47;6.15;;;-8.40;99.90;;;;;;5103830;27;21093;-61
2022/03/09 05:47:09;;;;;;;8.07;5.38;;;-8.40;99.90;;;;;;5124833;27;20552;-60
2022/03/09 05:49:48;;;;;;;6.63;6.03;;;-8.30;99.90;;;;;;5084727;27;20691;-59
2022/03/09 05:52:28;;;;;;;6.40;5.85;;;-8.30;99.90;;;;;;5084408;28;20960;-62
2022/03/09 05:55:09;;;;;;;10.43;6.85;;;-8.30;99.90;;;;;;5145763;27;21186;-60
2022/03/09 05:57:47;;;;;;;6.65;6.05;;;-8.20;99.90;;;;;;5083778;27;20543;-61
2022/03/09 06:00:28;;;;;;;7.85;7.20;;;-8.10;99.90;;;;;;5084268;28;20539;-60
2022/03/09 06:03:07;;;;;;;6.85;6.32;;;-8.10;99.90;;;;;;5125233;27;20552;-61
2022/03/09 06:05:47;;;;;;;6.68;6.15;;;-8.00;99.90;;;;;;5102410;27;21062;-59
2022/03/09 06:08:27;;;;;;;6.28;5.68;;;-8.00;99.90;;;;;;5104786;27;20605;-63
2022/03/09 06:11:07;;;;;;;6.85;6.25;;;-7.90;99.90;;;;;;5073675;28;20574;-59
2022/03/09 06:13:47;;;;;;;5.75;5.25;;;-7.80;99.90;;;;;;5066233;27;20694;-61
2022/03/09 06:16:26;;;;;;;6.20;5.70;;;-7.70;99.90;;;;;;5083425;28;20683;-60
2022/03/09 06:19:06;;;;;;;7.22;6.53;;;-7.60;99.90;;;;;;5083418;28;20701;-61
2022/03/09 06:21:46;;;;;;;7.57;6.65;;;-7.50;99.90;;;;;;5125077;27;20783;-61
2022/03/09 06:24:26;;;;;;;7.50;6.80;;;-7.40;99.90;;;;;;5125464;27;20528;-61
2022/03/09 06:27:06;;;;;;;6.38;5.95;;;-7.30;99.90;;;;;;5084021;27;20536;-60
2022/03/09 06:29:45;;;;;;;7.38;6.78;;;-7.20;99.90;;;;;;5145781;27;20542;-61
2022/03/09 06:32:25;;;;;;;8.63;7.75;;;-7.10;99.90;;;;;;5125548;27;20699;-60
2022/03/09 06:35:07;;;;;;;8.15;7.43;;;-6.90;99.90;;;;;;5124982;27;21011;-60
2022/03/09 06:37:47;;;;;;;8.32;7.18;;;-6.80;99.90;;;;;;5125041;27;20577;-61
2022/03/09 06:40:26;;;;;;;8.55;7.75;;;-6.60;99.90;;;;;;5125624;27;20678;-60
2022/03/09 06:43:06;;;;;;;9.20;7.90;;;-6.40;99.90;;;;;;5104926;27;21210;-59
2022/03/09 06:45:46;;;;;;;11.00;8.63;;;-6.30;99.90;;;;;;5083863;28;21153;-60
2022/03/09 06:48:26;;;;;;;7.88;7.18;;;-6.20;99.90;;;;;;5145062;27;20535;-60
2022/03/09 06:51:06;;;;;;;9.65;8.52;;;-6.00;99.90;;;;;;5103329;27;20669;-62
2022/03/09 06:53:46;;;;;;;9.23;8.52;;;-5.90;99.90;;;;;;5083972;27;20548;-60
2022/03/09 06:56:25;;;;;;;10.18;8.32;;;-5.80;99.90;;;;;;5068887;28;21227;-61
2022/03/09 06:59:05;;;;;;;10.02;8.93;;;-5.60;99.90;;;;;;5103756;27;20837;-59
2022/03/09 07:01:45;;;;;;;9.90;8.82;;;-5.50;99.90;;;;;;5146289;27;20527;-59
2022/03/09 07:04:25;;;;;;;7.88;7.28;;;-5.30;99.90;;;;;;5103726;27;20541;-60
2022/03/09 07:07:05;;;;;;;8.07;7.28;;;-5.20;99.90;;;;;;5104986;27;20705;-62
2022/03/09 07:09:44;;;;;;;10.23;7.50;;;-5.00;99.90;;;;;;5125743;27;21033;-59
2022/03/09 07:12:24;;;;;;;9.32;8.05;;;-4.90;99.90;;;;;;5084509;28;20683;-60
2022/03/09 07:15:05;;;;;;;8.77;8.00;;;-4.70;99.90;;;;;;5084714;27;20543;-61
2022/03/09 07:17:45;;;;;;;9.07;8.32;;;-4.50;99.90;;;;;;5104639;27;20669;-59
2022/03/09 07:20:24;;;;;;;8.38;6.88;;;-4.40;99.90;;;;;;5142545;27;20554;-60
2022/03/09 07:23:03;;;;;;;7.65;6.95;;;-4.30;99.90;;;;;;5069479;27;21227;-60
2022/03/09 07:25:44;;;;;;;11.98;7.93;;;-4.20;99.90;;;;;;5103762;27;21110;-59
2022/03/09 07:28:23;;;;;;;9.68;7.18;;;-4.10;99.90;;;;;;5124738;27;20658;-61
2022/03/09 07:31:03;;;;;;;8.02;7.38;;;-4.00;99.90;;;;;;5124995;27;20555;-60
2022/03/09 07:33:43;;;;;;;7.93;7.30;;;-3.90;99.90;;;;;;5124744;27;21080;-60
2022/03/09 07:36:23;;;;;;;11.75;7.00;;;-3.80;99.90;;;;;;5125406;27;20536;-61
2022/03/09 07:39:02;;;;;;;7.47;6.85;;;-3.70;99.90;;;;;;5144960;27;20676;-60
2022/03/09 07:41:43;;;;;;;9.65;7.07;;;-3.60;99.90;;;;;;5104110;27;20542;-59
2022/03/09 07:44:22;;;;;;;7.55;6.85;;;-3.50;99.90;;;;;;5141187;27;20563;-59
2022/03/09 07:47:02;;;;;;;8.38;7.28;;;-3.40;99.90;;;;;;5103722;27;21133;-60
2022/03/09 07:49:42;;;;;;;11.30;7.40;;;-3.30;99.90;;;;;;5084587;27;21209;-62
2022/03/09 07:52:21;;;;;;;7.72;6.78;;;-3.20;99.90;;;;;;5140287;27;20702;-60
2022/03/09 07:55:01;;;;;;;6.95;6.35;;;-3.20;99.90;;;;;;5110980;27;20581;-62
2022/03/09 07:57:41;;;;;;;7.90;7.20;;;-3.00;99.90;;;;;;5074560;27;20541;-61
2022/03/09 08:00:21;;;;;;;8.98;7.07;;;-2.90;99.90;;;;;;5067233;28;20729;-59
2022/03/09 08:03:01;;;;;;;7.20;6.50;;;-2.90;99.90;;;;;;5083746;27;21021;-59
2022/03/09 08:05:43;;;;;;;9.27;6.15;;;-2.70;99.90;;;;;;5102836;27;20538;-60
2022/03/09 08:08:22;;;;;;;7.07;6.45;;;-2.60;99.90;;;;;;5124344;27;20945;-62
2022/03/09 08:11:02;;;;;;;7.38;6.78;;;-2.50;99.90;;;;;;5145469;27;20542;-59
2022/03/09 08:13:42;;;;;;;9.50;6.43;;;-2.40;99.90;;;;;;5073268;27;20623;-61
2022/03/09 08:16:22;;;;;;;8.45;7.55;;;-2.40;99.90;;;;;;5138815;27;20607;-59
2022/03/09 08:19:01;;;;;;;7.72;6.90;;;-2.30;99.90;;;;;;5127382;27;20548;-59
2022/03/09 08:21:41;;;;;;;8.05;6.80;;;-2.20;99.90;;;;;;5077508;27;20576;-60
2022/03/09 08:24:21;;;;;;;8.18;6.70;;;-2.10;99.90;;;;;;5093671;27;20560;-62
2022/03/09 08:27:01;;;;;;;7.45;6.75;;;-2.00;99.90;;;;;;5058227;28;20784;-61
2022/03/09 08:29:41;;;;;;;6.95;6.45;;;-1.90;99.90;;;;;;5117173;27;20588;-61
2022/03/09 08:32:21;;;;;;;7.38;6.65;;;-1.80;99.90;;;;;;5063622;27;20892;-60
2022/03/09 08:35:00;;;;;;;8.02;6.70;;;-1.70;99.90;;;;;;5058733;28;20731;-60
2022/03/09 08:37:40;;;;;;;7.07;6.47;;;-1.60;99.90;;;;;;5097202;27;20913;-60
2022/03/09 08:40:20;;;;;;;8.50;6.53;;;-1.50;99.90;;;;;;5121236;27;20552;-62
2022/03/09 08:43:01;;;;;;;7.30;6.60;;;-1.40;99.90;;;;;;5108188;27;20561;-60
2022/03/09 08:45:40;;;;;;;6.68;6.07;;;-1.30;99.90;;;;;;5134194;27;20559;-60
2022/03/09 08:48:20;;;;;;;8.30;6.10;;;-1.20;99.90;;;;;;5112427;22;20729;-59
2022/03/09 08:50:59;;;;;;;8.65;6.75;;;-1.10;99.90;;;;;;5075624;27;20552;-56
2022/03/09 08:53:40;;;;;;;7.35;6.32;;;-1.00;99.90;;;;;;5116728;27;20675;-58
2022/03/09 08:56:20;;;;;;;7.22;6.65;;;-0.80;99.90;;;;;;5098572;27;20856;-59
2022/03/09 08:59:00;;;;;;;6.75;6.15;;;-0.70;99.90;;;;;;5083209;28;20695;-59
2022/03/09 09:01:40;;;;;;;9.30;6.85;;;-0.60;99.90;;;;;;5077716;27;20531;-58
2022/03/09 09:04:20;;;;;;;9.23;6.80;;;-0.50;99.90;;;;;;5102595;27;20804;-57
2022/03/09 09:07:00;;;;;;;9.60;6.05;;;-0.30;99.90;;;;;;5124800;27;21056;-57
2022/03/09 09:09:40;;;;;;;6.65;6.07;;;-0.20;99.90;;;;;;5084628;28;20676;-59
2022/03/09 09:12:19;;;;;;;6.80;6.10;;;0.00;99.90;;;;;;5084684;28;20671;-59
2022/03/09 09:14:59;;;;;;;7.57;6.88;;;0.10;99.90;;;;;;5146138;27;20670;-58
2022/03/09 09:17:39;;;;;;;10.73;7.78;;;0.30;99.90;;;;;;5124834;27;20544;-58
2022/03/09 09:20:20;;;;;;;9.32;7.07;;;0.50;99.90;;;;;;5069159;27;20603;-58
2022/03/09 09:23:02;;;;;;;7.03;6.32;;;0.70;99.90;;;;;;5079324;27;20533;-58
2022/03/09 09:25:42;;;;;;;6.78;4.78;;;1.00;99.90;;;;;;5050607;28;20695;-58
2022/03/09 09:28:22;;;;;;;6.47;5.88;;;1.30;99.90;;;;;;5061193;28;20577;-58
2022/03/09 09:31:02;;;;;;;6.50;5.55;;;1.60;99.90;;;;;;5075884;27;20551;-58
2022/03/09 09:33:41;;;;;;;5.93;5.15;;;1.80;99.90;;;;;;5115454;27;20560;-58
2022/03/09 09:36:21;;;;;;;6.30;5.70;;;2.00;99.90;;;;;;5098216;27;20568;-57
2022/03/09 09:39:01;;;;;;;6.07;5.57;;;2.20;99.90;;;;;;5096099;27;20546;-58
2022/03/09 09:41:43;;;;;;;5.75;4.65;;;2.50;99.90;;;;;;5077031;28;20566;-57
2022/03/09 09:44:24;;;;;;;5.47;4.97;;;2.80;99.90;;;;;;5078697;28;21070;-58
2022/03/09 09:47:08;;;;;;;7.85;5.75;;;3.00;99.90;;;;;;5077611;27;20961;-58
2022/03/09 09:49:48;;;;;;;5.78;5.30;;;3.20;99.90;;;;;;5074231;27;20593;-58
2022/03/09 09:52:30;;;;;;;9.82;5.28;;;3.40;99.90;;;;;;5096759;27;21029;-57
2022/03/09 09:55:10;;;;;;;6.97;5.68;;;3.60;99.90;;;;;;5083146;27;20572;-57
2022/03/09 09:57:51;;;;;;;5.57;5.07;;;3.80;99.90;;;;;;5099075;27;20653;-58
2022/03/09 10:00:31;;;;;;;6.22;4.93;;;3.90;99.90;;;;;;5102516;27;20549;-58
2022/03/09 10:03:11;;;;;;;5.60;5.10;;;4.00;99.90;;;;;;5134112;27;20660;-57
2022/03/09 10:05:51;;;;;;;7.45;4.78;;;4.00;99.90;;;;;;5078920;27;20747;-58
2022/03/09 10:08:30;;;;;;;5.82;4.82;;;4.10;99.90;;;;;;5075698;27;20603;-58
2022/03/09 10:11:10;;;;;;;4.88;4.47;;;4.20;99.90;;;;;;5081055;28;21221;-57
2022/03/09 10:13:50;;;;;;;4.38;3.97;;;4.20;99.90;;;;;;5082323;28;21065;-58
2022/03/09 10:16:31;;;;;;;5.20;4.70;;;4.30;99.90;;;;;;5099447;27;20557;-58
2022/03/09 10:19:11;;;;;;;4.88;4.47;;;4.40;99.90;;;;;;5062954;27;20599;-58
2022/03/09 10:21:51;;;;;;;5.82;4.68;;;4.50;98.70;;;;;;5079656;27;21142;-58
2022/03/09 10:24:36;;;;;;;6.18;4.05;;;4.70;96.20;;;;;;5102013;27;20553;-57
2022/03/09 10:27:36;;;;;;;7.32;6.68;;;4.80;94.50;;;;;;5079255;27;20569;-58
2022/03/09 10:30:17;;;;;;;5.15;4.68;;;4.80;92.40;;;;;;5095678;27;20728;-57
2022/03/09 10:33:00;;;;;;;7.25;4.72;;;4.80;92.90;;;;;;5063096;28;20702;-57
2022/03/09 10:35:43;;;;;;;5.18;4.53;;;4.80;94.20;;;;;;5076029;27;20572;-58
2022/03/09 10:38:30;;;;;;;4.90;4.50;;;4.90;92.30;;;;;;5133559;27;20570;-59
2022/03/09 10:41:10;;;;;;;5.10;4.60;;;5.00;86.50;;;;;;5078607;27;20563;-59
2022/03/09 10:43:50;;;;;;;4.40;4.03;;;5.10;87.60;;;;;;5063387;28;20682;-58
2022/03/09 10:46:43;;;;;;;4.90;4.30;;;5.20;89.20;;;;;;5122065;27;20555;-59
2022/03/09 10:49:25;;;;;;;5.80;4.97;;;5.30;85.50;;;;;;5094003;27;20717;-58
2022/03/09 10:52:05;;;;;;;6.10;4.38;;;5.30;82.40;;;;;;5098523;27;20701;-58
2022/03/09 10:54:45;;;;;;;5.20;4.80;;;5.30;81.70;;;;;;5078323;27;20565;-59
2022/03/09 10:57:31;;;;;;;4.65;4.25;;;5.30;81.70;;;;;;5074874;28;21052;-59
2022/03/09 11:00:12;;;;;;;4.95;4.55;;;5.40;79.70;;;;;;5101326;27;20829;-57
2022/03/09 11:02:52;;;;;;;4.20;3.88;;;5.50;74.20;;;;;;5076704;28;20693;-59
2022/03/09 11:05:34;;;;;;;7.65;4.70;;;5.50;67.20;;;;;;5100332;27;20673;-58
2022/03/09 11:08:15;;;;;;;5.18;4.78;;;5.50;68.60;;;;;;5079112;27;20593;-58
2022/03/09 11:10:58;;;;;;;4.80;4.40;;;5.60;68.30;;;;;;5082643;27;20617;-58
2022/03/09 11:13:38;;;;;;;4.90;4.50;;;5.80;73.70;;;;;;5078597;27;20986;-58
2022/03/09 11:16:19;;;;;;;4.30;3.92;;;6.00;66.60;;;;;;5059350;27;20579;-58
2022/03/09 11:18:58;;;;;;;4.05;3.75;;;6.20;60.30;;;;;;5072509;28;20719;-58
2022/03/09 11:21:38;;;;;;;4.40;4.00;;;6.30;55.80;;;;;;5070909;27;21218;-58
2022/03/09 11:24:19;;;;;;;4.35;3.95;;;6.30;52.00;;;;;;5096058;27;21180;-58
2022/03/09 11:27:03;;;;;;;5.30;4.85;;;6.30;54.60;;;;;;5074862;28;20708;-58
2022/03/09 11:29:42;;;;;;;6.72;3.53;;;6.40;53.70;;;;;;5098723;27;20981;-58
2022/03/09 11:32:35;;;;;;;6.63;4.13;;;6.40;54.40;;;;;;5075407;27;20563;-58
2022/03/09 11:35:37;;;;;;;6.03;5.30;;;6.30;53.10;;;;;;5097151;27;21158;-58
2022/03/09 11:38:41;;;;;;;4.63;4.25;;;6.20;58.20;;;;;;5063187;27;20736;-58
2022/03/09 11:41:23;;;;;;;3.60;3.30;;;6.30;60.40;;;;;;5133267;27;20689;-58
2022/03/09 11:44:29;;;;;;;3.88;3.58;;;6.40;53.50;;;;;;5075262;28;21087;-58
2022/03/09 11:47:09;;;;;;;4.60;3.97;;;6.60;52.60;;;;;;5080710;27;20612;-58
2022/03/09 11:50:11;;;;;;;4.20;3.78;;;6.60;51.30;;;;;;5066553;28;20709;-58
2022/03/09 11:53:03;;;;;;;3.70;3.40;;;6.60;48.30;;;;;;5094286;27;20555;-58
2022/03/09 11:55:42;;;;;;;7.95;4.72;;;6.60;46.90;;;;;;5084152;28;21192;-58
2022/03/09 11:58:22;;;;;;;3.58;3.28;;;6.60;47.10;;;;;;5083217;27;20555;-58
2022/03/09 12:01:04;;;;;;;3.10;2.75;;;6.70;48.40;;;;;;5082971;28;20671;-58
2022/03/09 12:03:43;;;;;;;3.55;3.25;;;6.90;44.60;;;;;;5145443;27;21385;-58
2022/03/09 12:06:45;;;;;;;3.35;3.05;;;7.00;44.60;;;;;;5145528;27;20550;-58
2022/03/09 12:09:55;;;;;;;3.30;3.03;;;7.10;47.40;;;;;;5144400;27;20692;-58
2022/03/09 12:12:37;;;;;;;3.38;3.17;;;7.10;46.40;;;;;;5093204;27;21014;-58
2022/03/09 12:15:18;;;;;;;4.05;3.65;;;7.20;47.70;;;;;;5074488;27;20553;-58
2022/03/09 12:17:57;;;;;;;4.82;4.00;;;7.30;47.80;;;;;;5054514;27;20593;-58
2022/03/09 12:20:46;;;;;;;3.80;3.50;;;7.20;48.70;;;;;;5124241;27;20548;-58
2022/03/09 12:23:26;;;;;;;3.65;3.35;;;7.20;47.50;;;;;;5083655;28;20671;-58
2022/03/09 12:26:06;;;;;;;3.47;3.17;;;7.20;49.20;;;;;;5104952;27;20549;-58
2022/03/09 12:28:46;;;;;;;3.88;3.58;;;7.20;47.70;;;;;;5084187;27;20559;-58
2022/03/09 12:31:26;;;;;;;3.70;3.40;;;7.20;48.60;;;;;;5084309;27;20539;-58
2022/03/09 12:34:08;;;;;;;4.78;3.40;;;7.30;48.30;;;;;;5083997;28;20675;-58
2022/03/09 12:36:46;;;;;;;3.20;2.90;;;7.40;49.10;;;;;;5125576;27;20929;-58
2022/03/09 12:39:27;;;;;;;3.20;3.00;;;7.50;46.60;;;;;;5104028;27;21237;-58
2022/03/09 12:42:07;;;;;;;3.58;3.28;;;7.40;47.30;;;;;;5081659;27;21071;-58
2022/03/09 12:44:49;;;;;;;3.35;3.05;;;7.40;46.80;;;;;;5101538;27;20953;-58
2022/03/09 12:47:34;;;;;;;3.45;3.17;;;7.40;46.30;;;;;;5139414;27;20566;-58
2022/03/09 12:50:14;;;;;;;3.47;3.17;;;7.40;47.10;;;;;;5079154;28;20683;-58
2022/03/09 12:52:55;;;;;;;3.30;3.00;;;7.40;47.20;;;;;;5102750;27;20571;-58
2022/03/09 12:55:36;;;;;;;3.28;3.08;;;7.40;46.70;;;;;;5125404;27;20663;-58
2022/03/09 12:58:21;;;;;;;3.63;3.33;;;7.50;47.90;;;;;;5103969;27;20572;-58
2022/03/09 13:01:08;;;;;;;3.75;3.45;;;7.50;47.80;;;;;;5142576;27;20568;-58
2022/03/09 13:03:48;;;;;;;3.70;3.40;;;7.60;50.00;;;;;;5079534;27;20905;-58
2022/03/09 13:06:29;;;;;;;3.88;3.55;;;7.70;48.60;;;;;;5145166;27;20546;-58
2022/03/09 13:09:21;;;;;;;3.78;3.47;;;7.80;48.20;;;;;;5144784;27;21067;-58
2022/03/09 13:12:08;;;;;;;3.88;3.58;;;7.80;47.90;;;;;;5145682;27;21201;-58
2022/03/09 13:14:53;;;;;;;2.90;2.70;;;7.90;47.90;;;;;;5084876;27;20912;-58
2022/03/09 13:17:32;;;;;;;3.40;3.10;;;8.00;48.30;;;;;;5117770;27;20922;-58
2022/03/09 13:20:24;;;;;;;4.10;3.80;;;8.10;47.80;;;;;;5069335;28;20650;-58
2022/03/09 13:23:04;;;;;;;3.97;3.67;;;8.10;48.70;;;;;;5062647;28;20682;-58
2022/03/09 13:25:43;;;;;;;3.50;3.20;;;8.10;48.30;;;;;;5144597;27;20685;-58
2022/03/09 13:28:29;;;;;;;4.25;3.85;;;8.00;48.90;;;;;;5092439;27;20592;-58
2022/03/09 13:31:10;;;;;;;3.22;2.95;;;8.00;50.00;;;;;;5075080;28;20682;-58
2022/03/09 13:33:51;;;;;;;3.50;3.20;;;8.00;49.20;;;;;;5079029;27;20563;-58
2022/03/09 13:36:31;;;;;;;3.58;3.28;;;8.10;48.10;;;;;;5093485;27;20621;-58
2022/03/09 13:39:12;;;;;;;3.30;3.10;;;8.20;47.70;;;;;;5060308;28;20697;-58
2022/03/09 13:41:52;;;;;;;3.58;3.28;;;8.20;47.70;;;;;;5090228;27;21027;-58
2022/03/09 13:44:32;;;;;;;3.60;2.97;;;8.20;48.90;;;;;;5091875;27;20550;-59
2022/03/09 13:47:12;;;;;;;3.25;2.95;;;8.20;47.80;;;;;;5074841;28;20680;-58
2022/03/09 13:49:52;;;;;;;3.13;2.90;;;8.20;47.70;;;;;;5102405;27;20542;-58
2022/03/09 13:52:33;;;;;;;3.90;3.60;;;8.20;48.30;;;;;;5062931;28;20537;-59
2022/03/09 13:55:21;;;;;;;4.35;3.28;;;8.20;48.20;;;;;;5084273;27;20562;-60
2022/03/09 13:58:05;;;;;;;2.70;2.50;;;8.20;48.90;;;;;;5077829;28;20705;-59
2022/03/09 14:00:46;;;;;;;3.15;2.90;;;8.40;49.70;;;;;;5071486;27;20607;-59
2022/03/09 14:03:25;;;;;;;2.90;2.70;;;8.50;47.80;;;;;;5075451;28;21038;-60